Northeast Iowa Regional Airport
KCCY : rendu visible

Aérodrome :











RETROUVEZ-NOUS SUR...

 
LOGIN :

S'inscrire | Disclaimer

   EN    FR    IT 

 









Légende :    VFR   VFR Marginal   IFR   IFR Intensif   IFR Très Intensif
Visi : 
Plafond : 
>= 8 km
>= 3000ft
5 à 8 km
1000 à 3000 ft
1500m à 5 km
500 à 1000 ft
800 à 1500m
200 à 500 ft
< 800m
< 200 ft
Symboles :   Orages  Brouillard  Fortes neiges  Fortes précipitations  Vent > 20 kt






- Altitude de l'aérodrome : 1125 ft


KCCY - Northeast Iowa Regional

DERNIER METAR :
  • 031755Z AUTO 02009G14KT 10SM SCT047 BKN055 BKN070 20/10 A3017 RMK AO2

METARs EXPIRÉS :
  • 031735Z AUTO 01009G18KT 10SM SCT046 SCT055 SCT070 19/10 A3017 RMK AO2
  • 031715Z AUTO 02009G15KT 10SM FEW048 20/09 A3017 RMK AO2
  • 031655Z AUTO 02010G18KT 10SM CLR 19/10 A3017 RMK AO2
  • 031635Z AUTO 01013G18KT 10SM CLR 19/09 A3017 RMK AO2
  • 031615Z AUTO 02012KT 10SM CLR 19/09 A3017 RMK AO2
  • 031555Z AUTO 02010KT 350V050 10SM CLR 19/10 A3017 RMK AO2
  • 031535Z AUTO 36012KT 10SM CLR 18/09 A3017 RMK AO2
  • 031515Z AUTO 02011KT 10SM CLR 18/09 A3017 RMK AO2

TAF N/A
FIR KZMP / Amérique du Nord



MET'MAP, la Météo Aéronautique d'un coup d'oeil ! - Copyright ORBIFLY Décembre 2007 - Disclaimer

ORBIFLY MET'MAP TEAM :

Programmation & Développement : Alexandra Zaïnal
Sur une idée originale de : Baudouin d'Aumeries
Assistance à la programmation : Marc-Olivier Méhu
Soutien technique & logistique : Manuel Goepfert

Contact : metmap@orbifly.com




SOURCES & CREDITS :

   NOAA       Earth
Advisory